sensor_id;sensor_type;location;lat;lon;timestamp;temperature;humidity
17774;DHT22;9011;33.236;-97.118;2023-02-28T00:01:26;21.90;77.00
17774;DHT22;9011;33.236;-97.118;2023-02-28T00:03:54;21.80;78.90
17774;DHT22;9011;33.236;-97.118;2023-02-28T00:06:23;21.90;78.80
17774;DHT22;9011;33.236;-97.118;2023-02-28T00:08:52;21.80;78.40
17774;DHT22;9011;33.236;-97.118;2023-02-28T00:11:20;21.60;77.00
17774;DHT22;9011;33.236;-97.118;2023-02-28T00:13:48;21.60;78.70
17774;DHT22;9011;33.236;-97.118;2023-02-28T00:16:18;21.40;81.00
17774;DHT22;9011;33.236;-97.118;2023-02-28T00:18:48;21.30;80.90
17774;DHT22;9011;33.236;-97.118;2023-02-28T00:21:18;21.20;81.10
17774;DHT22;9011;33.236;-97.118;2023-02-28T00:23:46;21.10;84.20
17774;DHT22;9011;33.236;-97.118;2023-02-28T00:26:15;21.00;85.00
17774;DHT22;9011;33.236;-97.118;2023-02-28T00:28:43;20.70;83.60
17774;DHT22;9011;33.236;-97.118;2023-02-28T00:31:12;20.70;85.20
17774;DHT22;9011;33.236;-97.118;2023-02-28T00:33:40;20.50;87.50
17774;DHT22;9011;33.236;-97.118;2023-02-28T00:36:11;20.30;87.30
17774;DHT22;9011;33.236;-97.118;2023-02-28T00:38:40;20.20;88.50
17774;DHT22;9011;33.236;-97.118;2023-02-28T00:41:09;20.00;87.80
17774;DHT22;9011;33.236;-97.118;2023-02-28T00:43:38;19.80;87.60
17774;DHT22;9011;33.236;-97.118;2023-02-28T00:46:38;19.70;88.40
17774;DHT22;9011;33.236;-97.118;2023-02-28T00:49:20;19.50;90.10
17774;DHT22;9011;33.236;-97.118;2023-02-28T00:51:50;19.40;91.30
17774;DHT22;9011;33.236;-97.118;2023-02-28T00:54:19;19.20;90.90
17774;DHT22;9011;33.236;-97.118;2023-02-28T00:56:48;19.00;90.80
17774;DHT22;9011;33.236;-97.118;2023-02-28T00:59:17;19.00;87.50
17774;DHT22;9011;33.236;-97.118;2023-02-28T01:01:46;18.80;87.70
17774;DHT22;9011;33.236;-97.118;2023-02-28T01:04:15;18.60;88.80
17774;DHT22;9011;33.236;-97.118;2023-02-28T01:06:43;18.50;90.40
17774;DHT22;9011;33.236;-97.118;2023-02-28T01:09:13;18.30;91.30
17774;DHT22;9011;33.236;-97.118;2023-02-28T01:11:42;18.20;91.60
17774;DHT22;9011;33.236;-97.118;2023-02-28T01:14:12;18.10;92.40
17774;DHT22;9011;33.236;-97.118;2023-02-28T01:16:42;17.90;92.40
17774;DHT22;9011;33.236;-97.118;2023-02-28T01:19:10;17.80;93.50
17774;DHT22;9011;33.236;-97.118;2023-02-28T01:21:39;17.60;93.30
17774;DHT22;9011;33.236;-97.118;2023-02-28T01:24:08;17.50;93.20
17774;DHT22;9011;33.236;-97.118;2023-02-28T01:26:37;17.50;92.70
17774;DHT22;9011;33.236;-97.118;2023-02-28T01:29:06;17.40;93.60
17774;DHT22;9011;33.236;-97.118;2023-02-28T01:31:34;17.30;94.20
17774;DHT22;9011;33.236;-97.118;2023-02-28T01:34:03;17.20;94.30
17774;DHT22;9011;33.236;-97.118;2023-02-28T01:36:32;17.10;94.00
17774;DHT22;9011;33.236;-97.118;2023-02-28T01:39:03;17.00;93.70
17774;DHT22;9011;33.236;-97.118;2023-02-28T01:41:36;16.90;93.60
17774;DHT22;9011;33.236;-97.118;2023-02-28T01:44:06;16.80;93.80
17774;DHT22;9011;33.236;-97.118;2023-02-28T01:46:36;16.70;93.80
17774;DHT22;9011;33.236;-97.118;2023-02-28T01:49:09;16.60;93.70
17774;DHT22;9011;33.236;-97.118;2023-02-28T01:51:41;16.50;94.20
17774;DHT22;9011;33.236;-97.118;2023-02-28T01:54:16;16.40;94.90
17774;DHT22;9011;33.236;-97.118;2023-02-28T01:56:54;16.40;95.20
17774;DHT22;9011;33.236;-97.118;2023-02-28T01:59:26;16.30;95.30
17774;DHT22;9011;33.236;-97.118;2023-02-28T02:01:57;16.20;96.10
17774;DHT22;9011;33.236;-97.118;2023-02-28T02:04:32;16.20;96.00
17774;DHT22;9011;33.236;-97.118;2023-02-28T02:07:07;16.10;95.10
17774;DHT22;9011;33.236;-97.118;2023-02-28T02:10:04;16.00;95.10
17774;DHT22;9011;33.236;-97.118;2023-02-28T02:13:21;15.90;95.50
17774;DHT22;9011;33.236;-97.118;2023-02-28T02:16:26;15.80;95.90
17774;DHT22;9011;33.236;-97.118;2023-02-28T02:22:35;15.70;95.50
17774;DHT22;9011;33.236;-97.118;2023-02-28T02:25:28;15.60;95.50
17774;DHT22;9011;33.236;-97.118;2023-02-28T02:28:25;15.50;96.20
17774;DHT22;9011;33.236;-97.118;2023-02-28T02:37:12;15.30;97.00
17774;DHT22;9011;33.236;-97.118;2023-02-28T02:39:49;15.30;98.20
17774;DHT22;9011;33.236;-97.118;2023-02-28T02:42:23;15.20;98.30
17774;DHT22;9011;33.236;-97.118;2023-02-28T02:44:58;15.10;97.30
17774;DHT22;9011;33.236;-97.118;2023-02-28T02:47:30;15.10;98.00
17774;DHT22;9011;33.236;-97.118;2023-02-28T02:50:04;15.00;98.00
17774;DHT22;9011;33.236;-97.118;2023-02-28T02:52:38;15.00;97.70
17774;DHT22;9011;33.236;-97.118;2023-02-28T02:55:09;14.90;98.70
17774;DHT22;9011;33.236;-97.118;2023-02-28T02:57:43;14.90;98.90
17774;DHT22;9011;33.236;-97.118;2023-02-28T03:00:16;14.90;98.70
17774;DHT22;9011;33.236;-97.118;2023-02-28T03:02:47;14.80;98.70
17774;DHT22;9011;33.236;-97.118;2023-02-28T03:05:21;14.70;98.40
17774;DHT22;9011;33.236;-97.118;2023-02-28T03:07:51;14.70;98.60
17774;DHT22;9011;33.236;-97.118;2023-02-28T03:10:29;14.60;97.70
17774;DHT22;9011;33.236;-97.118;2023-02-28T03:13:11;14.60;98.20
17774;DHT22;9011;33.236;-97.118;2023-02-28T03:15:50;14.40;99.00
17774;DHT22;9011;33.236;-97.118;2023-02-28T03:18:26;14.40;98.50
17774;DHT22;9011;33.236;-97.118;2023-02-28T03:21:03;14.40;99.50
17774;DHT22;9011;33.236;-97.118;2023-02-28T03:23:38;14.30;99.80
17774;DHT22;9011;33.236;-97.118;2023-02-28T03:26:16;14.30;98.80
17774;DHT22;9011;33.236;-97.118;2023-02-28T03:28:53;14.20;98.70
17774;DHT22;9011;33.236;-97.118;2023-02-28T03:31:28;14.20;98.90
17774;DHT22;9011;33.236;-97.118;2023-02-28T03:34:01;14.10;99.00
17774;DHT22;9011;33.236;-97.118;2023-02-28T03:36:36;14.10;99.00
17774;DHT22;9011;33.236;-97.118;2023-02-28T03:39:14;14.00;99.40
17774;DHT22;9011;33.236;-97.118;2023-02-28T03:41:45;13.90;99.10
17774;DHT22;9011;33.236;-97.118;2023-02-28T03:44:18;13.90;99.30
17774;DHT22;9011;33.236;-97.118;2023-02-28T03:46:51;13.90;99.90
17774;DHT22;9011;33.236;-97.118;2023-02-28T03:49:24;13.80;99.90
17774;DHT22;9011;33.236;-97.118;2023-02-28T03:51:56;13.80;99.90
17774;DHT22;9011;33.236;-97.118;2023-02-28T03:54:30;13.80;99.90
17774;DHT22;9011;33.236;-97.118;2023-02-28T03:57:02;13.80;99.90
17774;DHT22;9011;33.236;-97.118;2023-02-28T03:59:36;13.70;99.90
17774;DHT22;9011;33.236;-97.118;2023-02-28T04:02:05;13.70;99.90
17774;DHT22;9011;33.236;-97.118;2023-02-28T04:04:34;13.60;99.90
17774;DHT22;9011;33.236;-97.118;2023-02-28T04:07:05;13.60;99.90
17774;DHT22;9011;33.236;-97.118;2023-02-28T04:09:37;13.50;99.90
17774;DHT22;9011;33.236;-97.118;2023-02-28T04:12:06;13.50;99.90
17774;DHT22;9011;33.236;-97.118;2023-02-28T04:14:34;13.50;99.90
17774;DHT22;9011;33.236;-97.118;2023-02-28T04:17:03;13.50;99.90
17774;DHT22;9011;33.236;-97.118;2023-02-28T04:19:31;13.40;99.90
17774;DHT22;9011;33.236;-97.118;2023-02-28T04:21:59;13.40;99.90
17774;DHT22;9011;33.236;-97.118;2023-02-28T04:24:29;13.30;99.90
17774;DHT22;9011;33.236;-97.118;2023-02-28T04:26:58;13.30;99.90
17774;DHT22;9011;33.236;-97.118;2023-02-28T04:29:28;13.30;99.90
17774;DHT22;9011;33.236;-97.118;2023-02-28T04:31:57;13.30;99.90
17774;DHT22;9011;33.236;-97.118;2023-02-28T04:34:26;13.30;99.90
17774;DHT22;9011;33.236;-97.118;2023-02-28T04:36:56;13.20;99.90
17774;DHT22;9011;33.236;-97.118;2023-02-28T04:39:28;13.10;99.90
17774;DHT22;9011;33.236;-97.118;2023-02-28T04:41:56;13.10;99.90
17774;DHT22;9011;33.236;-97.118;2023-02-28T04:44:25;13.10;99.90
17774;DHT22;9011;33.236;-97.118;2023-02-28T04:46:53;13.10;99.90
17774;DHT22;9011;33.236;-97.118;2023-02-28T04:49:22;13.00;99.90
17774;DHT22;9011;33.236;-97.118;2023-02-28T04:51:50;13.00;99.90
17774;DHT22;9011;33.236;-97.118;2023-02-28T04:54:19;12.90;99.90
17774;DHT22;9011;33.236;-97.118;2023-02-28T04:56:49;12.90;99.90
17774;DHT22;9011;33.236;-97.118;2023-02-28T04:59:18;12.90;99.90
17774;DHT22;9011;33.236;-97.118;2023-02-28T05:01:47;12.90;99.90
17774;DHT22;9011;33.236;-97.118;2023-02-28T05:04:16;12.90;99.90
17774;DHT22;9011;33.236;-97.118;2023-02-28T05:06:45;12.90;99.90
17774;DHT22;9011;33.236;-97.118;2023-02-28T05:09:13;12.90;99.90
17774;DHT22;9011;33.236;-97.118;2023-02-28T05:11:42;12.90;99.90
17774;DHT22;9011;33.236;-97.118;2023-02-28T05:14:13;12.90;99.90
17774;DHT22;9011;33.236;-97.118;2023-02-28T05:16:41;12.90;99.90
17774;DHT22;9011;33.236;-97.118;2023-02-28T05:19:10;12.80;99.90
17774;DHT22;9011;33.236;-97.118;2023-02-28T05:21:40;12.80;99.90
17774;DHT22;9011;33.236;-97.118;2023-02-28T05:24:11;12.90;99.90
17774;DHT22;9011;33.236;-97.118;2023-02-28T05:26:41;12.90;99.90
17774;DHT22;9011;33.236;-97.118;2023-02-28T05:29:12;13.00;99.90
17774;DHT22;9011;33.236;-97.118;2023-02-28T05:31:40;13.00;99.90
17774;DHT22;9011;33.236;-97.118;2023-02-28T05:34:09;13.10;99.80
17774;DHT22;9011;33.236;-97.118;2023-02-28T05:36:38;13.10;99.90
17774;DHT22;9011;33.236;-97.118;2023-02-28T05:39:07;13.00;99.90
17774;DHT22;9011;33.236;-97.118;2023-02-28T05:41:40;13.00;99.90
17774;DHT22;9011;33.236;-97.118;2023-02-28T05:44:09;12.90;99.90
17774;DHT22;9011;33.236;-97.118;2023-02-28T05:46:40;12.90;99.90
17774;DHT22;9011;33.236;-97.118;2023-02-28T05:49:08;12.90;99.90
17774;DHT22;9011;33.236;-97.118;2023-02-28T05:51:37;12.90;99.90
17774;DHT22;9011;33.236;-97.118;2023-02-28T05:54:06;12.80;99.90
17774;DHT22;9011;33.236;-97.118;2023-02-28T05:56:35;12.70;99.90
17774;DHT22;9011;33.236;-97.118;2023-02-28T05:59:05;12.70;99.90
17774;DHT22;9011;33.236;-97.118;2023-02-28T06:01:35;12.70;99.90
17774;DHT22;9011;33.236;-97.118;2023-02-28T06:04:07;12.60;99.90
17774;DHT22;9011;33.236;-97.118;2023-02-28T06:06:36;12.50;99.90
17774;DHT22;9011;33.236;-97.118;2023-02-28T06:09:05;12.50;99.90
17774;DHT22;9011;33.236;-97.118;2023-02-28T06:11:34;12.40;99.90
17774;DHT22;9011;33.236;-97.118;2023-02-28T06:14:03;12.40;99.90
17774;DHT22;9011;33.236;-97.118;2023-02-28T06:16:32;12.30;99.90
17774;DHT22;9011;33.236;-97.118;2023-02-28T06:19:04;12.30;99.90
17774;DHT22;9011;33.236;-97.118;2023-02-28T06:21:32;12.10;99.90
17774;DHT22;9011;33.236;-97.118;2023-02-28T06:24:01;12.10;99.90
17774;DHT22;9011;33.236;-97.118;2023-02-28T06:26:30;12.00;99.90
17774;DHT22;9011;33.236;-97.118;2023-02-28T06:28:58;11.90;99.90
17774;DHT22;9011;33.236;-97.118;2023-02-28T06:31:27;11.80;99.90
17774;DHT22;9011;33.236;-97.118;2023-02-28T06:33:55;11.80;99.90
17774;DHT22;9011;33.236;-97.118;2023-02-28T06:36:25;11.80;99.90
17774;DHT22;9011;33.236;-97.118;2023-02-28T06:38:54;11.80;99.90
17774;DHT22;9011;33.236;-97.118;2023-02-28T06:41:24;11.70;99.90
17774;DHT22;9011;33.236;-97.118;2023-02-28T06:43:53;11.70;99.90
17774;DHT22;9011;33.236;-97.118;2023-02-28T06:46:22;11.70;99.90
17774;DHT22;9011;33.236;-97.118;2023-02-28T06:48:50;11.70;99.90
17774;DHT22;9011;33.236;-97.118;2023-02-28T06:51:20;11.70;99.90
17774;DHT22;9011;33.236;-97.118;2023-02-28T06:53:51;11.60;99.90
17774;DHT22;9011;33.236;-97.118;2023-02-28T06:56:19;11.50;99.90
17774;DHT22;9011;33.236;-97.118;2023-02-28T06:58:49;11.40;99.90
17774;DHT22;9011;33.236;-97.118;2023-02-28T07:01:19;11.40;99.90
17774;DHT22;9011;33.236;-97.118;2023-02-28T07:03:49;11.40;99.90
17774;DHT22;9011;33.236;-97.118;2023-02-28T07:06:18;11.30;99.90
17774;DHT22;9011;33.236;-97.118;2023-02-28T07:08:51;11.30;99.90
17774;DHT22;9011;33.236;-97.118;2023-02-28T07:11:20;11.30;99.90
17774;DHT22;9011;33.236;-97.118;2023-02-28T07:13:49;11.20;99.90
17774;DHT22;9011;33.236;-97.118;2023-02-28T07:16:17;11.30;99.90
17774;DHT22;9011;33.236;-97.118;2023-02-28T07:18:46;11.20;99.90
17774;DHT22;9011;33.236;-97.118;2023-02-28T07:21:15;11.10;99.90
17774;DHT22;9011;33.236;-97.118;2023-02-28T07:23:43;11.10;99.90
17774;DHT22;9011;33.236;-97.118;2023-02-28T07:26:15;11.10;99.90
17774;DHT22;9011;33.236;-97.118;2023-02-28T07:28:44;11.00;99.90
17774;DHT22;9011;33.236;-97.118;2023-02-28T07:31:13;10.90;99.90
17774;DHT22;9011;33.236;-97.118;2023-02-28T07:33:42;10.90;99.90
17774;DHT22;9011;33.236;-97.118;2023-02-28T07:36:12;10.90;99.90
17774;DHT22;9011;33.236;-97.118;2023-02-28T07:38:46;10.80;99.90
17774;DHT22;9011;33.236;-97.118;2023-02-28T07:41:18;10.80;99.90
17774;DHT22;9011;33.236;-97.118;2023-02-28T07:43:47;10.80;99.90
17774;DHT22;9011;33.236;-97.118;2023-02-28T07:46:16;10.80;99.90
17774;DHT22;9011;33.236;-97.118;2023-02-28T07:48:46;10.80;99.90
17774;DHT22;9011;33.236;-97.118;2023-02-28T07:51:14;10.90;99.90
17774;DHT22;9011;33.236;-97.118;2023-02-28T07:53:43;10.80;99.90
17774;DHT22;9011;33.236;-97.118;2023-02-28T07:56:11;10.80;99.90
17774;DHT22;9011;33.236;-97.118;2023-02-28T07:58:41;10.70;99.90
17774;DHT22;9011;33.236;-97.118;2023-02-28T08:01:11;10.70;99.90
17774;DHT22;9011;33.236;-97.118;2023-02-28T08:03:40;10.70;99.90
17774;DHT22;9011;33.236;-97.118;2023-02-28T08:06:16;10.70;99.90
17774;DHT22;9011;33.236;-97.118;2023-02-28T08:08:45;10.70;99.90
17774;DHT22;9011;33.236;-97.118;2023-02-28T08:11:13;10.70;99.90
17774;DHT22;9011;33.236;-97.118;2023-02-28T08:13:44;10.70;99.90
17774;DHT22;9011;33.236;-97.118;2023-02-28T08:16:13;10.60;99.90
17774;DHT22;9011;33.236;-97.118;2023-02-28T08:18:48;10.50;99.90
17774;DHT22;9011;33.236;-97.118;2023-02-28T08:21:18;10.60;99.90
17774;DHT22;9011;33.236;-97.118;2023-02-28T08:23:47;10.60;99.90
17774;DHT22;9011;33.236;-97.118;2023-02-28T08:26:16;10.50;99.90
17774;DHT22;9011;33.236;-97.118;2023-02-28T08:28:46;10.50;99.90
17774;DHT22;9011;33.236;-97.118;2023-02-28T08:31:16;10.40;99.90
17774;DHT22;9011;33.236;-97.118;2023-02-28T08:33:44;10.40;99.90
17774;DHT22;9011;33.236;-97.118;2023-02-28T08:36:14;10.40;99.90
17774;DHT22;9011;33.236;-97.118;2023-02-28T08:38:43;10.40;99.90
17774;DHT22;9011;33.236;-97.118;2023-02-28T08:41:14;10.40;99.90
17774;DHT22;9011;33.236;-97.118;2023-02-28T08:43:43;10.40;99.90
17774;DHT22;9011;33.236;-97.118;2023-02-28T08:46:13;10.30;99.90
17774;DHT22;9011;33.236;-97.118;2023-02-28T08:48:42;10.30;99.90
17774;DHT22;9011;33.236;-97.118;2023-02-28T08:51:12;10.30;99.90
17774;DHT22;9011;33.236;-97.118;2023-02-28T08:53:42;10.20;99.90
17774;DHT22;9011;33.236;-97.118;2023-02-28T08:56:12;10.20;99.90
17774;DHT22;9011;33.236;-97.118;2023-02-28T08:58:41;10.10;99.90
17774;DHT22;9011;33.236;-97.118;2023-02-28T09:01:12;10.10;99.90
17774;DHT22;9011;33.236;-97.118;2023-02-28T09:03:41;10.00;99.90
17774;DHT22;9011;33.236;-97.118;2023-02-28T09:06:10;10.00;99.90
17774;DHT22;9011;33.236;-97.118;2023-02-28T09:08:41;9.90;99.90
17774;DHT22;9011;33.236;-97.118;2023-02-28T09:11:10;9.90;99.90
17774;DHT22;9011;33.236;-97.118;2023-02-28T09:13:39;9.90;99.90
17774;DHT22;9011;33.236;-97.118;2023-02-28T09:16:10;9.80;99.90
17774;DHT22;9011;33.236;-97.118;2023-02-28T09:18:40;9.70;99.90
17774;DHT22;9011;33.236;-97.118;2023-02-28T09:21:11;9.70;99.90
17774;DHT22;9011;33.236;-97.118;2023-02-28T09:23:40;9.70;99.90
17774;DHT22;9011;33.236;-97.118;2023-02-28T09:26:14;9.70;99.90
17774;DHT22;9011;33.236;-97.118;2023-02-28T09:28:42;9.70;99.90
17774;DHT22;9011;33.236;-97.118;2023-02-28T09:31:16;9.70;99.90
17774;DHT22;9011;33.236;-97.118;2023-02-28T09:33:50;9.70;99.90
17774;DHT22;9011;33.236;-97.118;2023-02-28T09:36:19;9.60;99.90
17774;DHT22;9011;33.236;-97.118;2023-02-28T09:38:48;9.60;99.90
17774;DHT22;9011;33.236;-97.118;2023-02-28T09:41:21;9.60;99.90
17774;DHT22;9011;33.236;-97.118;2023-02-28T09:43:52;9.60;99.90
17774;DHT22;9011;33.236;-97.118;2023-02-28T09:46:30;9.60;99.90
17774;DHT22;9011;33.236;-97.118;2023-02-28T09:49:05;9.50;99.90
17774;DHT22;9011;33.236;-97.118;2023-02-28T09:51:46;9.50;99.90
17774;DHT22;9011;33.236;-97.118;2023-02-28T09:54:19;9.60;99.90
17774;DHT22;9011;33.236;-97.118;2023-02-28T09:56:50;9.60;99.90
17774;DHT22;9011;33.236;-97.118;2023-02-28T09:59:32;9.60;99.90
17774;DHT22;9011;33.236;-97.118;2023-02-28T10:02:21;9.60;99.90
17774;DHT22;9011;33.236;-97.118;2023-02-28T10:04:56;9.60;99.90
17774;DHT22;9011;33.236;-97.118;2023-02-28T10:07:37;9.60;99.90
17774;DHT22;9011;33.236;-97.118;2023-02-28T10:10:18;9.60;99.90
17774;DHT22;9011;33.236;-97.118;2023-02-28T10:12:52;9.50;99.90
17774;DHT22;9011;33.236;-97.118;2023-02-28T10:15:24;9.50;99.90
17774;DHT22;9011;33.236;-97.118;2023-02-28T10:17:56;9.50;99.90
17774;DHT22;9011;33.236;-97.118;2023-02-28T10:20:28;9.60;99.90
17774;DHT22;9011;33.236;-97.118;2023-02-28T10:23:04;9.60;99.90
17774;DHT22;9011;33.236;-97.118;2023-02-28T10:25:37;9.70;99.90
17774;DHT22;9011;33.236;-97.118;2023-02-28T10:28:10;9.80;99.90
17774;DHT22;9011;33.236;-97.118;2023-02-28T10:30:41;9.90;99.90
17774;DHT22;9011;33.236;-97.118;2023-02-28T10:33:19;9.90;99.90
17774;DHT22;9011;33.236;-97.118;2023-02-28T10:35:51;10.10;99.90
17774;DHT22;9011;33.236;-97.118;2023-02-28T10:38:21;10.20;99.90
17774;DHT22;9011;33.236;-97.118;2023-02-28T10:40:51;10.50;99.90
17774;DHT22;9011;33.236;-97.118;2023-02-28T10:43:21;10.70;99.90
17774;DHT22;9011;33.236;-97.118;2023-02-28T10:45:57;10.80;99.90
17774;DHT22;9011;33.236;-97.118;2023-02-28T10:48:30;10.90;99.80
17774;DHT22;9011;33.236;-97.118;2023-02-28T10:51:03;10.90;99.90
17774;DHT22;9011;33.236;-97.118;2023-02-28T10:53:48;10.90;99.90
17774;DHT22;9011;33.236;-97.118;2023-02-28T10:56:18;10.90;99.60
17774;DHT22;9011;33.236;-97.118;2023-02-28T10:58:53;11.00;99.40
17774;DHT22;9011;33.236;-97.118;2023-02-28T11:04:53;11.00;99.60
17774;DHT22;9011;33.236;-97.118;2023-02-28T11:08:08;11.00;99.70
17774;DHT22;9011;33.236;-97.118;2023-02-28T11:14:40;10.90;99.90
17774;DHT22;9011;33.236;-97.118;2023-02-28T11:23:56;10.80;99.80
17774;DHT22;9011;33.236;-97.118;2023-02-28T11:30:36;10.90;99.50
17774;DHT22;9011;33.236;-97.118;2023-02-28T11:33:25;10.90;99.30
17774;DHT22;9011;33.236;-97.118;2023-02-28T12:12:50;11.20;98.00
17774;DHT22;9011;33.236;-97.118;2023-02-28T12:19:18;11.20;97.70
17774;DHT22;9011;33.236;-97.118;2023-02-28T13:12:19;11.00;96.80
17774;DHT22;9011;33.236;-97.118;2023-02-28T14:08:52;12.20;94.50
17774;DHT22;9011;33.236;-97.118;2023-02-28T14:14:55;12.50;94.80
17774;DHT22;9011;33.236;-97.118;2023-02-28T14:17:42;12.60;94.10
17774;DHT22;9011;33.236;-97.118;2023-02-28T14:21:10;12.70;94.60
17774;DHT22;9011;33.236;-97.118;2023-02-28T14:38:31;13.60;92.90
17774;DHT22;9011;33.236;-97.118;2023-02-28T14:45:19;14.20;92.20
17774;DHT22;9011;33.236;-97.118;2023-02-28T15:46:32;19.10;87.80
17774;DHT22;9011;33.236;-97.118;2023-02-28T15:53:33;19.30;86.50
17774;DHT22;9011;33.236;-97.118;2023-02-28T15:56:22;19.60;86.10
17774;DHT22;9011;33.236;-97.118;2023-02-28T15:58:54;19.70;85.90
17774;DHT22;9011;33.236;-97.118;2023-02-28T16:01:25;19.90;83.90
17774;DHT22;9011;33.236;-97.118;2023-02-28T16:04:13;20.00;82.60
17774;DHT22;9011;33.236;-97.118;2023-02-28T16:07:29;20.10;84.10
17774;DHT22;9011;33.236;-97.118;2023-02-28T16:10:05;20.40;84.40
17774;DHT22;9011;33.236;-97.118;2023-02-28T16:13:08;20.50;84.50
17774;DHT22;9011;33.236;-97.118;2023-02-28T16:15:42;20.70;82.70
17774;DHT22;9011;33.236;-97.118;2023-02-28T16:18:24;20.90;84.20
17774;DHT22;9011;33.236;-97.118;2023-02-28T16:20:55;21.20;84.40
17774;DHT22;9011;33.236;-97.118;2023-02-28T16:23:23;21.30;84.10
17774;DHT22;9011;33.236;-97.118;2023-02-28T16:25:52;21.50;84.00
17774;DHT22;9011;33.236;-97.118;2023-02-28T16:28:23;21.60;81.50
17774;DHT22;9011;33.236;-97.118;2023-02-28T16:30:52;21.60;79.40
17774;DHT22;9011;33.236;-97.118;2023-02-28T16:33:21;21.80;81.30
17774;DHT22;9011;33.236;-97.118;2023-02-28T16:35:49;21.60;80.20
17774;DHT22;9011;33.236;-97.118;2023-02-28T16:38:19;21.70;80.70
17774;DHT22;9011;33.236;-97.118;2023-02-28T16:40:51;21.90;78.10
17774;DHT22;9011;33.236;-97.118;2023-02-28T16:46:53;22.20;78.80
17774;DHT22;9011;33.236;-97.118;2023-02-28T16:49:24;22.40;76.40
17774;DHT22;9011;33.236;-97.118;2023-02-28T20:48:24;27.90;53.80
17774;DHT22;9011;33.236;-97.118;2023-02-28T21:02:33;28.40;52.80
17774;DHT22;9011;33.236;-97.118;2023-02-28T21:41:32;28.00;52.90
17774;DHT22;9011;33.236;-97.118;2023-02-28T21:44:11;27.90;52.20
17774;DHT22;9011;33.236;-97.118;2023-02-28T21:46:49;27.80;51.50
17774;DHT22;9011;33.236;-97.118;2023-02-28T21:52:29;27.70;51.40
17774;DHT22;9011;33.236;-97.118;2023-02-28T21:55:01;27.60;50.80
17774;DHT22;9011;33.236;-97.118;2023-02-28T21:57:38;27.70;51.50
17774;DHT22;9011;33.236;-97.118;2023-02-28T22:00:08;27.80;53.70
17774;DHT22;9011;33.236;-97.118;2023-02-28T22:02:37;27.90;54.50
17774;DHT22;9011;33.236;-97.118;2023-02-28T22:05:09;27.90;51.50
17774;DHT22;9011;33.236;-97.118;2023-02-28T22:07:37;28.00;53.20
17774;DHT22;9011;33.236;-97.118;2023-02-28T22:10:13;28.00;52.90
17774;DHT22;9011;33.236;-97.118;2023-02-28T22:12:42;28.10;52.50
17774;DHT22;9011;33.236;-97.118;2023-02-28T22:15:11;28.20;52.10
17774;DHT22;9011;33.236;-97.118;2023-02-28T22:17:40;28.10;52.80
17774;DHT22;9011;33.236;-97.118;2023-02-28T22:20:10;28.10;52.20
17774;DHT22;9011;33.236;-97.118;2023-02-28T22:22:46;28.00;51.50
17774;DHT22;9011;33.236;-97.118;2023-02-28T22:25:24;27.80;51.10
17774;DHT22;9011;33.236;-97.118;2023-02-28T22:31:38;27.80;51.50
17774;DHT22;9011;33.236;-97.118;2023-02-28T22:34:19;27.90;53.50
17774;DHT22;9011;33.236;-97.118;2023-02-28T22:36:57;28.00;52.80
17774;DHT22;9011;33.236;-97.118;2023-02-28T22:39:28;28.00;54.20
17774;DHT22;9011;33.236;-97.118;2023-02-28T22:41:57;27.80;52.70
17774;DHT22;9011;33.236;-97.118;2023-02-28T22:44:25;27.70;54.20
17774;DHT22;9011;33.236;-97.118;2023-02-28T22:46:59;27.80;53.20
17774;DHT22;9011;33.236;-97.118;2023-02-28T22:49:40;27.90;52.60
17774;DHT22;9011;33.236;-97.118;2023-02-28T22:52:20;27.80;52.90
17774;DHT22;9011;33.236;-97.118;2023-02-28T22:54:57;27.70;53.60
17774;DHT22;9011;33.236;-97.118;2023-02-28T22:57:39;27.60;54.80
17774;DHT22;9011;33.236;-97.118;2023-02-28T23:00:14;27.40;53.10
17774;DHT22;9011;33.236;-97.118;2023-02-28T23:03:07;27.40;53.00
17774;DHT22;9011;33.236;-97.118;2023-02-28T23:05:35;27.30;54.70
17774;DHT22;9011;33.236;-97.118;2023-02-28T23:08:06;27.20;53.40
17774;DHT22;9011;33.236;-97.118;2023-02-28T23:10:53;27.10;53.00
17774;DHT22;9011;33.236;-97.118;2023-02-28T23:13:22;27.00;53.30
17774;DHT22;9011;33.236;-97.118;2023-02-28T23:15:56;26.90;53.20
17774;DHT22;9011;33.236;-97.118;2023-02-28T23:18:27;26.90;54.20
17774;DHT22;9011;33.236;-97.118;2023-02-28T23:20:56;26.80;53.00
17774;DHT22;9011;33.236;-97.118;2023-02-28T23:23:24;26.60;52.90
17774;DHT22;9011;33.236;-97.118;2023-02-28T23:25:53;26.60;53.60
17774;DHT22;9011;33.236;-97.118;2023-02-28T23:28:22;26.60;52.90
17774;DHT22;9011;33.236;-97.118;2023-02-28T23:30:50;26.40;53.80
17774;DHT22;9011;33.236;-97.118;2023-02-28T23:33:21;26.30;54.10
17774;DHT22;9011;33.236;-97.118;2023-02-28T23:35:56;26.30;53.50
17774;DHT22;9011;33.236;-97.118;2023-02-28T23:41:48;26.20;54.00
17774;DHT22;9011;33.236;-97.118;2023-02-28T23:44:16;26.10;52.90
17774;DHT22;9011;33.236;-97.118;2023-02-28T23:50:04;25.90;54.80
17774;DHT22;9011;33.236;-97.118;2023-02-28T23:52:34;25.80;54.60
17774;DHT22;9011;33.236;-97.118;2023-02-28T23:55:03;25.80;55.30
17774;DHT22;9011;33.236;-97.118;2023-02-28T23:57:32;25.70;55.10
